createdAt,value
2024-01-28T00:02:46.473Z,7.90
2024-01-28T00:07:49.822Z,7.80
2024-01-28T00:12:53.171Z,7.90
2024-01-28T00:17:58.290Z,7.90
2024-01-28T00:23:01.663Z,7.90
2024-01-28T00:28:05.118Z,8.00
2024-01-28T00:33:10.169Z,8.00
2024-01-28T00:38:13.477Z,8.00
2024-01-28T00:43:16.795Z,8.00
2024-01-28T00:48:22.305Z,8.10
2024-01-28T00:53:25.647Z,8.10
2024-01-28T00:58:30.452Z,8.20
2024-01-28T01:03:35.453Z,8.20
2024-01-28T01:08:38.910Z,8.30
2024-01-28T01:13:42.290Z,8.20
2024-01-28T01:18:47.340Z,8.20
2024-01-28T01:23:50.590Z,8.20
2024-01-28T01:28:53.908Z,8.20
2024-01-28T01:33:58.625Z,8.20
2024-01-28T01:39:01.991Z,8.20
2024-01-28T01:44:05.414Z,8.20
2024-01-28T01:49:10.952Z,8.20
2024-01-28T01:54:14.414Z,8.20
2024-01-28T01:59:21.911Z,8.20
2024-01-28T02:04:26.906Z,8.30
2024-01-28T02:09:30.613Z,8.30
2024-01-28T02:14:33.911Z,8.30
2024-01-28T02:19:38.929Z,8.30
2024-01-28T02:24:43.948Z,8.30
2024-01-28T02:29:47.364Z,8.30
2024-01-28T02:34:50.696Z,8.20
2024-01-28T02:39:55.491Z,8.20
2024-01-28T02:44:58.795Z,8.20
2024-01-28T02:50:02.252Z,8.20
2024-01-28T02:55:08.038Z,8.10
2024-01-28T03:00:12.347Z,8.10
2024-01-28T03:05:15.725Z,8.10
2024-01-28T03:10:21.252Z,8.10
2024-01-28T03:15:24.605Z,8.10
2024-01-28T03:20:28.448Z,8.10
2024-01-28T03:25:33.983Z,8.00
2024-01-28T03:30:37.458Z,8.00
2024-01-28T03:35:40.739Z,7.90
2024-01-28T03:40:45.572Z,7.80
2024-01-28T03:45:48.970Z,7.80
2024-01-28T03:50:52.245Z,7.90
2024-01-28T03:55:57.199Z,8.00
2024-01-28T04:01:00.540Z,8.10
2024-01-28T04:06:04.095Z,8.20
2024-01-28T04:11:09.348Z,8.20
2024-01-28T04:16:12.564Z,8.30
2024-01-28T04:21:15.859Z,8.30
2024-01-28T04:26:22.057Z,8.30
2024-01-28T04:31:27.997Z,8.30
2024-01-28T04:36:31.698Z,8.30
2024-01-28T04:41:36.600Z,8.30
2024-01-28T04:46:39.864Z,8.40
2024-01-28T04:51:43.409Z,8.40
2024-01-28T04:56:50.794Z,8.40
2024-01-28T05:01:54.041Z,8.40
2024-01-28T05:06:57.509Z,8.50
2024-01-28T05:12:02.205Z,8.40
2024-01-28T05:17:06.404Z,8.40
2024-01-28T05:22:09.750Z,8.30
2024-01-28T05:27:14.536Z,8.30
2024-01-28T05:32:17.869Z,8.20
2024-01-28T05:37:21.346Z,8.20
2024-01-28T05:42:26.228Z,8.20
2024-01-28T05:47:29.512Z,8.10
2024-01-28T05:52:32.944Z,8.20
2024-01-28T05:57:37.985Z,8.20
2024-01-28T06:02:41.241Z,8.10
2024-01-28T06:07:44.668Z,8.10
2024-01-28T06:12:49.581Z,8.10
2024-01-28T06:17:52.944Z,8.20
2024-01-28T06:22:56.235Z,8.10
2024-01-28T06:28:00.984Z,8.10
2024-01-28T06:33:05.364Z,8.00
2024-01-28T06:38:08.897Z,8.00
2024-01-28T06:43:17.058Z,7.90
2024-01-28T06:48:22.531Z,7.90
2024-01-28T06:53:26.100Z,7.90
2024-01-28T06:58:30.723Z,7.90
2024-01-28T07:03:34.223Z,7.90
2024-01-28T07:08:37.556Z,7.80
2024-01-28T07:13:42.913Z,7.80
2024-01-28T07:18:46.320Z,7.90
2024-01-28T07:23:49.711Z,7.90
2024-01-28T07:28:54.406Z,7.90
2024-01-28T07:33:58.936Z,7.90
2024-01-28T07:39:02.239Z,8.00
2024-01-28T07:44:07.019Z,8.00
2024-01-28T07:49:10.362Z,8.10
2024-01-28T07:54:13.862Z,8.10
2024-01-28T07:59:18.558Z,8.10
2024-01-28T08:04:22.010Z,8.10
2024-01-28T08:09:25.379Z,8.10
2024-01-28T08:14:30.158Z,8.10
2024-01-28T08:19:34.023Z,8.20
2024-01-28T08:24:39.164Z,8.10
2024-01-28T08:29:44.005Z,8.10
2024-01-28T08:34:51.127Z,8.20
2024-01-28T08:39:54.692Z,8.30
2024-01-28T08:44:59.986Z,8.30
2024-01-28T08:50:04.374Z,8.30
2024-01-28T08:55:08.126Z,8.30
2024-01-28T09:00:14.457Z,8.40
2024-01-28T09:05:17.991Z,8.50
2024-01-28T09:10:21.411Z,8.60
2024-01-28T09:15:26.391Z,8.60
2024-01-28T09:20:29.761Z,8.60
2024-01-28T09:25:34.284Z,8.60
2024-01-28T09:30:43.273Z,8.60
2024-01-28T09:35:48.499Z,8.50
2024-01-28T09:40:53.914Z,8.60
2024-01-28T09:45:58.985Z,8.60
2024-01-28T09:51:02.209Z,8.70
2024-01-28T09:56:06.406Z,8.70
2024-01-28T10:01:12.858Z,8.90
2024-01-28T10:06:16.358Z,9.00
2024-01-28T10:11:20.200Z,9.10
2024-01-28T10:16:26.333Z,9.30
2024-01-28T10:21:29.805Z,9.30
2024-01-28T10:26:37.078Z,9.10
2024-01-28T10:31:43.278Z,9.10
2024-01-28T10:36:50.435Z,9.20
2024-01-28T10:41:58.315Z,9.30
2024-01-28T10:47:03.081Z,9.40
2024-01-28T10:52:06.701Z,9.50
2024-01-28T10:57:13.224Z,9.40
2024-01-28T11:02:21.426Z,9.40
2024-01-28T11:07:25.579Z,9.50
2024-01-28T11:12:29.556Z,9.50
2024-01-28T11:17:35.495Z,9.50
2024-01-28T11:22:49.844Z,9.60
2024-01-28T11:27:55.002Z,9.70
2024-01-28T11:33:10.590Z,9.70
2024-01-28T11:38:21.533Z,9.70
2024-01-28T11:43:24.817Z,9.60
2024-01-28T11:48:29.735Z,9.70
2024-01-28T11:53:34.269Z,9.70
2024-01-28T11:58:37.722Z,9.70
2024-01-28T12:03:42.457Z,9.80
2024-01-28T12:08:46.054Z,9.90
2024-01-28T12:13:49.615Z,10.00
2024-01-28T12:18:57.396Z,10.10
2024-01-28T12:24:03.750Z,10.20
2024-01-28T12:29:07.251Z,10.30
2024-01-28T12:34:17.869Z,10.30
2024-01-28T12:39:21.555Z,10.30
2024-01-28T12:44:24.893Z,10.40
2024-01-28T12:49:29.681Z,10.40
2024-01-28T12:54:33.984Z,10.50
2024-01-28T12:59:37.334Z,10.50
2024-01-28T13:04:42.416Z,10.60
2024-01-28T13:09:47.064Z,10.70
2024-01-28T13:14:50.303Z,10.70
2024-01-28T13:19:55.606Z,10.80
2024-01-28T13:24:59.450Z,10.90
2024-01-28T13:30:03.126Z,10.90
2024-01-28T13:35:10.129Z,10.90
2024-01-28T13:40:13.687Z,10.80
2024-01-28T13:45:17.478Z,10.90
2024-01-28T13:50:22.132Z,11.10
2024-01-28T13:55:25.407Z,11.10
2024-01-28T14:00:28.706Z,11.10
2024-01-28T14:05:34.827Z,11.10
2024-01-28T14:10:39.548Z,11.20
2024-01-28T14:15:43.013Z,11.20
2024-01-28T14:20:47.980Z,11.20
2024-01-28T14:25:51.309Z,11.20
2024-01-28T14:30:54.759Z,11.20
2024-01-28T14:35:59.821Z,11.20
2024-01-28T14:41:03.127Z,11.10
2024-01-28T14:46:06.720Z,11.20
2024-01-28T14:51:11.748Z,11.20
2024-01-28T14:56:15.779Z,11.20
2024-01-28T15:01:19.222Z,11.20
2024-01-28T15:06:24.029Z,11.10
2024-01-28T15:11:27.444Z,11.10
2024-01-28T15:16:31.247Z,11.10
2024-01-28T15:21:36.021Z,11.10
2024-01-28T15:26:39.754Z,11.10
2024-01-28T15:31:42.979Z,11.10
2024-01-28T15:36:47.884Z,11.10
2024-01-28T15:41:51.307Z,11.10
2024-01-28T15:46:54.633Z,11.10
2024-01-28T15:51:59.395Z,11.10
2024-01-28T15:57:03.251Z,11.00
2024-01-28T16:02:06.726Z,10.90
2024-01-28T16:07:12.241Z,10.90
2024-01-28T16:12:15.751Z,10.90
2024-01-28T16:17:24.730Z,10.80
2024-01-28T16:22:31.053Z,10.60
2024-01-28T16:27:34.672Z,10.50
2024-01-28T16:32:39.079Z,10.40
2024-01-28T16:37:52.987Z,10.30
2024-01-28T16:42:56.688Z,10.20
2024-01-28T16:48:00.241Z,10.20
2024-01-28T16:53:06.035Z,10.10
2024-01-28T16:58:10.357Z,9.90
2024-01-28T17:03:13.881Z,9.80
2024-01-28T17:08:18.867Z,9.70
2024-01-28T17:13:22.165Z,9.60
2024-01-28T17:18:27.734Z,9.50
2024-01-28T17:23:32.637Z,9.40
2024-01-28T17:28:36.101Z,9.30
2024-01-28T17:33:39.590Z,9.20
2024-01-28T17:38:44.622Z,9.00
2024-01-28T17:43:48.179Z,9.00
2024-01-28T17:48:51.986Z,8.90
2024-01-28T17:53:59.059Z,8.90
2024-01-28T17:59:02.440Z,8.80
2024-01-28T18:04:08.242Z,8.80
2024-01-28T18:09:12.984Z,8.60
2024-01-28T18:14:16.671Z,8.50
2024-01-28T18:19:20.571Z,8.40
2024-01-28T18:24:25.445Z,8.30
2024-01-28T18:29:28.753Z,8.30
2024-01-28T18:34:34.005Z,8.30
2024-01-28T18:39:42.103Z,8.30
2024-01-28T18:44:46.564Z,8.20
2024-01-28T18:49:49.998Z,8.10
2024-01-28T18:54:54.942Z,8.10
2024-01-28T18:59:58.147Z,8.10
2024-01-28T19:05:03.424Z,8.10
2024-01-28T19:10:10.004Z,8.00
2024-01-28T19:15:13.327Z,8.00
2024-01-28T19:20:22.095Z,8.00
2024-01-28T19:25:27.613Z,7.90
2024-01-28T19:30:31.315Z,7.90
2024-01-28T19:35:34.661Z,7.90
2024-01-28T19:40:39.525Z,7.80
2024-01-28T19:45:43.708Z,7.80
2024-01-28T19:50:49.244Z,7.70
2024-01-28T19:55:54.013Z,7.50
2024-01-28T20:00:57.379Z,7.50
2024-01-28T20:06:00.687Z,7.40
2024-01-28T20:11:06.732Z,7.40
2024-01-28T20:16:10.905Z,7.40
2024-01-28T20:21:14.100Z,7.40
2024-01-28T20:26:20.223Z,7.30
2024-01-28T20:31:26.577Z,7.30
2024-01-28T20:36:30.135Z,7.20
2024-01-28T20:41:34.727Z,7.20
2024-01-28T20:46:37.945Z,7.00
2024-01-28T20:51:41.456Z,6.90
2024-01-28T20:56:46.246Z,6.90
2024-01-28T21:01:49.766Z,6.90
2024-01-28T21:06:55.452Z,6.90
2024-01-28T21:12:00.201Z,6.80
2024-01-28T21:17:03.649Z,6.80
2024-01-28T21:22:06.997Z,6.70
2024-01-28T21:27:11.841Z,6.70
2024-01-28T21:32:15.672Z,6.70
2024-01-28T21:37:19.191Z,6.60
2024-01-28T21:42:24.216Z,6.50
2024-01-28T21:47:27.533Z,6.40
2024-01-28T21:52:30.896Z,6.50
2024-01-28T21:57:35.826Z,6.40
2024-01-28T22:02:40.598Z,6.30
2024-01-28T22:07:44.089Z,6.40
2024-01-28T22:12:48.942Z,6.30
2024-01-28T22:17:52.364Z,6.30
2024-01-28T22:22:55.699Z,6.20
2024-01-28T22:28:00.640Z,6.20
2024-01-28T22:33:06.356Z,6.10
2024-01-28T22:38:10.242Z,6.00
2024-01-28T22:43:15.167Z,6.00
2024-01-28T22:48:19.059Z,5.90
2024-01-28T22:53:22.644Z,5.90
2024-01-28T22:58:27.873Z,5.80
2024-01-28T23:03:31.528Z,5.80
2024-01-28T23:08:36.467Z,5.80
2024-01-28T23:13:41.709Z,5.70
2024-01-28T23:18:45.106Z,5.80
2024-01-28T23:23:50.250Z,5.80
2024-01-28T23:28:55.253Z,5.80
2024-01-28T23:34:03.781Z,5.70
2024-01-28T23:39:07.912Z,5.70
2024-01-28T23:44:17.546Z,5.60
2024-01-28T23:49:21.390Z,5.50
2024-01-28T23:54:25.676Z,5.50
2024-01-28T23:59:30.819Z,5.40
